Mac Mahan, Maine
Current Conditions -  °F | °C
As of 6:53 AM on Friday 28 Nov 2014 (Local Time) from KIWI Reporting Station
Overcast Overcast  
Wind Chill: 23°   Ceiling: 6000
Heat Index: 23°   Visibility: 10mi
Dew Point: 16°   Wind: 0mph
Humidity: 74%   Direction: NA
Pressure: 30.05"   Gusts: NA
Location:  43.8074°N, 69.7472°W
Report Text: KIWI 281153Z AUTO 00000KT 10SM OVC060 M05/M09 A3005 RMK AO2 SLP178 I6001 T10501089 11044 21072 53009
Loading
Personal Weather Stations






























Interactive Weather Map New forecast layout! Learn more

10-Day Weather Forecast

Advertisements
Track Severe Weather on mobile